sensor_id;sensor_type;location;lat;lon;timestamp;pressure;altitude;pressure_sealevel;temperature;humidity
78064;BME280;67429;51.596;-3.264;2024-03-02T00:02:17;96665.18;;;1.89;100.00
78064;BME280;67429;51.596;-3.264;2024-03-02T00:04:44;96662.13;;;3.08;100.00
78064;BME280;67429;51.596;-3.264;2024-03-02T00:07:09;96663.90;;;3.27;100.00
78064;BME280;67429;51.596;-3.264;2024-03-02T00:09:34;96661.31;;;4.05;100.00
78064;BME280;67429;51.596;-3.264;2024-03-02T00:12:01;96663.74;;;5.07;100.00
78064;BME280;67429;51.596;-3.264;2024-03-02T00:14:29;96662.14;;;5.45;100.00
78064;BME280;67429;51.596;-3.264;2024-03-02T00:16:52;96662.61;;;5.31;100.00
78064;BME280;67429;51.596;-3.264;2024-03-02T00:19:18;96663.06;;;5.81;100.00
78064;BME280;67429;51.596;-3.264;2024-03-02T00:21:43;96662.72;;;4.82;100.00
78064;BME280;67429;51.596;-3.264;2024-03-02T00:24:19;96660.66;;;4.12;100.00
78064;BME280;67429;51.596;-3.264;2024-03-02T00:26:35;96662.24;;;5.13;100.00
78064;BME280;67429;51.596;-3.264;2024-03-02T00:29:00;96663.70;;;3.46;100.00
78064;BME280;67429;51.596;-3.264;2024-03-02T00:31:26;96665.19;;;2.86;100.00
78064;BME280;67429;51.596;-3.264;2024-03-02T00:34:02;96666.99;;;2.87;100.00
78064;BME280;67429;51.596;-3.264;2024-03-02T00:36:24;96668.13;;;3.27;100.00
78064;BME280;67429;51.596;-3.264;2024-03-02T00:38:46;96666.01;;;3.71;100.00
78064;BME280;67429;51.596;-3.264;2024-03-02T00:41:15;96666.19;;;3.77;100.00
78064;BME280;67429;51.596;-3.264;2024-03-02T00:43:43;96660.19;;;4.82;100.00
78064;BME280;67429;51.596;-3.264;2024-03-02T00:46:02;96659.92;;;3.94;100.00
78064;BME280;67429;51.596;-3.264;2024-03-02T00:48:26;96658.43;;;4.17;100.00
78064;BME280;67429;51.596;-3.264;2024-03-02T00:50:52;96656.16;;;4.42;100.00
78064;BME280;67429;51.596;-3.264;2024-03-02T00:53:18;96655.47;;;4.73;100.00
78064;BME280;67429;51.596;-3.264;2024-03-02T00:55:43;96654.41;;;4.82;100.00
78064;BME280;67429;51.596;-3.264;2024-03-02T00:58:10;96653.08;;;5.40;100.00
78064;BME280;67429;51.596;-3.264;2024-03-02T01:00:34;96650.41;;;5.23;100.00
78064;BME280;67429;51.596;-3.264;2024-03-02T01:03:02;96655.17;;;6.05;100.00
78064;BME280;67429;51.596;-3.264;2024-03-02T01:05:26;96653.85;;;6.21;100.00
78064;BME280;67429;51.596;-3.264;2024-03-02T01:07:53;96655.99;;;5.08;100.00
78064;BME280;67429;51.596;-3.264;2024-03-02T01:10:18;96655.66;;;5.15;100.00
78064;BME280;67429;51.596;-3.264;2024-03-02T01:12:42;96652.35;;;5.38;100.00
78064;BME280;67429;51.596;-3.264;2024-03-02T01:15:09;96646.93;;;6.19;100.00
78064;BME280;67429;51.596;-3.264;2024-03-02T01:17:34;96648.14;;;4.59;100.00
78064;BME280;67429;51.596;-3.264;2024-03-02T01:20:00;96651.65;;;5.01;100.00
78064;BME280;67429;51.596;-3.264;2024-03-02T01:22:26;96648.83;;;3.93;100.00
78064;BME280;67429;51.596;-3.264;2024-03-02T01:24:51;96648.76;;;2.51;100.00
78064;BME280;67429;51.596;-3.264;2024-03-02T01:27:17;96649.50;;;2.33;100.00
78064;BME280;67429;51.596;-3.264;2024-03-02T01:29:43;96648.83;;;3.46;100.00
78064;BME280;67429;51.596;-3.264;2024-03-02T01:32:10;96646.17;;;3.47;100.00
78064;BME280;67429;51.596;-3.264;2024-03-02T01:34:35;96644.13;;;2.02;100.00
78064;BME280;67429;51.596;-3.264;2024-03-02T01:37:01;96643.94;;;2.75;100.00
78064;BME280;67429;51.596;-3.264;2024-03-02T01:39:28;96637.57;;;3.86;100.00
78064;BME280;67429;51.596;-3.264;2024-03-02T01:41:54;96635.68;;;2.82;100.00
78064;BME280;67429;51.596;-3.264;2024-03-02T01:44:20;96632.31;;;3.33;100.00
78064;BME280;67429;51.596;-3.264;2024-03-02T01:46:44;96622.49;;;2.92;100.00
78064;BME280;67429;51.596;-3.264;2024-03-02T01:49:09;96626.55;;;2.03;100.00
78064;BME280;67429;51.596;-3.264;2024-03-02T01:51:35;96625.74;;;1.85;100.00
78064;BME280;67429;51.596;-3.264;2024-03-02T01:54:03;96628.28;;;1.69;100.00
78064;BME280;67429;51.596;-3.264;2024-03-02T01:56:27;96629.82;;;2.09;100.00
78064;BME280;67429;51.596;-3.264;2024-03-02T01:58:52;96620.96;;;1.53;100.00
78064;BME280;67429;51.596;-3.264;2024-03-02T02:01:19;96625.67;;;1.97;100.00
78064;BME280;67429;51.596;-3.264;2024-03-02T02:03:44;96622.13;;;1.24;100.00
78064;BME280;67429;51.596;-3.264;2024-03-02T02:06:10;96623.51;;;1.81;100.00
78064;BME280;67429;51.596;-3.264;2024-03-02T02:08:37;96624.61;;;1.55;100.00
78064;BME280;67429;51.596;-3.264;2024-03-02T02:11:02;96624.32;;;1.55;100.00
78064;BME280;67429;51.596;-3.264;2024-03-02T02:13:27;96623.55;;;1.22;100.00
78064;BME280;67429;51.596;-3.264;2024-03-02T02:15:54;96626.70;;;2.54;100.00
78064;BME280;67429;51.596;-3.264;2024-03-02T02:18:19;96627.11;;;2.48;100.00
78064;BME280;67429;51.596;-3.264;2024-03-02T02:20:45;96624.26;;;3.46;100.00
78064;BME280;67429;51.596;-3.264;2024-03-02T02:23:11;96624.62;;;3.24;100.00
78064;BME280;67429;51.596;-3.264;2024-03-02T02:25:36;96623.48;;;2.12;100.00
78064;BME280;67429;51.596;-3.264;2024-03-02T02:28:02;96620.79;;;2.88;100.00
78064;BME280;67429;51.596;-3.264;2024-03-02T02:30:30;96616.22;;;2.44;100.00
78064;BME280;67429;51.596;-3.264;2024-03-02T02:32:54;96619.29;;;2.52;100.00
78064;BME280;67429;51.596;-3.264;2024-03-02T02:35:22;96615.50;;;3.61;100.00
78064;BME280;67429;51.596;-3.264;2024-03-02T02:37:46;96613.39;;;2.77;100.00
78064;BME280;67429;51.596;-3.264;2024-03-02T02:40:12;96611.98;;;2.68;100.00
78064;BME280;67429;51.596;-3.264;2024-03-02T02:42:37;96607.98;;;2.58;100.00
78064;BME280;67429;51.596;-3.264;2024-03-02T02:45:04;96605.91;;;2.17;100.00
78064;BME280;67429;51.596;-3.264;2024-03-02T02:47:30;96598.21;;;2.99;100.00
78064;BME280;67429;51.596;-3.264;2024-03-02T02:49:54;96592.60;;;2.00;100.00
78064;BME280;67429;51.596;-3.264;2024-03-02T02:52:20;96590.81;;;2.03;100.00
78064;BME280;67429;51.596;-3.264;2024-03-02T02:54:46;96584.72;;;2.07;100.00
78064;BME280;67429;51.596;-3.264;2024-03-02T02:57:12;96582.29;;;3.57;100.00
78064;BME280;67429;51.596;-3.264;2024-03-02T02:59:38;96582.37;;;2.88;100.00
78064;BME280;67429;51.596;-3.264;2024-03-02T03:02:04;96580.16;;;2.48;100.00
78064;BME280;67429;51.596;-3.264;2024-03-02T03:04:31;96575.91;;;1.97;100.00
78064;BME280;67429;51.596;-3.264;2024-03-02T03:06:55;96570.08;;;1.03;100.00
78064;BME280;67429;51.596;-3.264;2024-03-02T03:09:21;96571.79;;;1.23;100.00
78064;BME280;67429;51.596;-3.264;2024-03-02T03:11:47;96572.12;;;1.50;100.00
78064;BME280;67429;51.596;-3.264;2024-03-02T03:14:13;96564.99;;;0.94;100.00
78064;BME280;67429;51.596;-3.264;2024-03-02T03:16:39;96559.24;;;0.87;100.00
78064;BME280;67429;51.596;-3.264;2024-03-02T03:19:05;96562.34;;;1.56;100.00
78064;BME280;67429;51.596;-3.264;2024-03-02T03:21:30;96556.86;;;1.09;100.00
78064;BME280;67429;51.596;-3.264;2024-03-02T03:23:56;96557.11;;;1.31;100.00
78064;BME280;67429;51.596;-3.264;2024-03-02T03:26:22;96551.02;;;0.92;100.00
78064;BME280;67429;51.596;-3.264;2024-03-02T03:28:48;96551.87;;;1.17;100.00
78064;BME280;67429;51.596;-3.264;2024-03-02T03:31:13;96553.79;;;0.92;100.00
78064;BME280;67429;51.596;-3.264;2024-03-02T03:33:38;96547.87;;;0.43;100.00
78064;BME280;67429;51.596;-3.264;2024-03-02T03:36:04;96546.15;;;0.82;100.00
78064;BME280;67429;51.596;-3.264;2024-03-02T03:38:31;96552.44;;;1.16;100.00
78064;BME280;67429;51.596;-3.264;2024-03-02T03:40:54;96548.91;;;-0.62;100.00
78064;BME280;67429;51.596;-3.264;2024-03-02T03:43:20;96547.63;;;0.01;100.00
78064;BME280;67429;51.596;-3.264;2024-03-02T03:45:45;96549.79;;;0.29;100.00
78064;BME280;67429;51.596;-3.264;2024-03-02T03:48:11;96547.89;;;0.28;100.00
78064;BME280;67429;51.596;-3.264;2024-03-02T03:50:36;96544.60;;;0.55;100.00
78064;BME280;67429;51.596;-3.264;2024-03-02T03:53:02;96543.87;;;0.18;100.00
78064;BME280;67429;51.596;-3.264;2024-03-02T03:55:26;96545.00;;;0.52;100.00
78064;BME280;67429;51.596;-3.264;2024-03-02T03:57:53;96541.75;;;0.20;100.00
78064;BME280;67429;51.596;-3.264;2024-03-02T04:00:18;96543.83;;;0.59;100.00
78064;BME280;67429;51.596;-3.264;2024-03-02T04:02:44;96543.35;;;-0.15;100.00
78064;BME280;67429;51.596;-3.264;2024-03-02T04:05:08;96542.65;;;0.45;100.00
78064;BME280;67429;51.596;-3.264;2024-03-02T04:07:36;96548.72;;;0.93;100.00
78064;BME280;67429;51.596;-3.264;2024-03-02T04:10:00;96543.38;;;0.48;100.00
78064;BME280;67429;51.596;-3.264;2024-03-02T04:12:26;96547.12;;;0.38;100.00
78064;BME280;67429;51.596;-3.264;2024-03-02T04:14:51;96544.36;;;0.62;100.00
78064;BME280;67429;51.596;-3.264;2024-03-02T04:17:18;96551.42;;;0.75;100.00
78064;BME280;67429;51.596;-3.264;2024-03-02T04:19:43;96550.11;;;1.71;100.00
78064;BME280;67429;51.596;-3.264;2024-03-02T04:22:09;96547.36;;;1.96;100.00
78064;BME280;67429;51.596;-3.264;2024-03-02T04:24:35;96540.86;;;0.52;100.00
78064;BME280;67429;51.596;-3.264;2024-03-02T04:27:01;96545.51;;;0.05;100.00
78064;BME280;67429;51.596;-3.264;2024-03-02T04:29:26;96541.20;;;-0.02;100.00
78064;BME280;67429;51.596;-3.264;2024-03-02T04:31:52;96546.88;;;0.48;100.00
78064;BME280;67429;51.596;-3.264;2024-03-02T04:34:20;96551.95;;;-0.59;100.00
78064;BME280;67429;51.596;-3.264;2024-03-02T04:36:44;96547.14;;;0.35;100.00
78064;BME280;67429;51.596;-3.264;2024-03-02T04:39:09;96555.79;;;-0.10;100.00
78064;BME280;67429;51.596;-3.264;2024-03-02T04:41:35;96553.94;;;0.83;100.00
78064;BME280;67429;51.596;-3.264;2024-03-02T04:44:00;96555.74;;;0.26;100.00
78064;BME280;67429;51.596;-3.264;2024-03-02T04:46:25;96561.26;;;-0.07;100.00
78064;BME280;67429;51.596;-3.264;2024-03-02T04:48:50;96566.98;;;-0.25;100.00
78064;BME280;67429;51.596;-3.264;2024-03-02T04:51:16;96571.54;;;-0.14;100.00
78064;BME280;67429;51.596;-3.264;2024-03-02T04:53:44;96571.20;;;-0.31;100.00
78064;BME280;67429;51.596;-3.264;2024-03-02T04:56:08;96570.53;;;-0.71;100.00
78064;BME280;67429;51.596;-3.264;2024-03-02T04:58:34;96568.75;;;-0.50;100.00
78064;BME280;67429;51.596;-3.264;2024-03-02T05:00:59;96568.86;;;1.00;100.00
78064;BME280;67429;51.596;-3.264;2024-03-02T05:03:24;96573.26;;;-0.12;100.00
78064;BME280;67429;51.596;-3.264;2024-03-02T05:05:50;96573.39;;;-0.15;100.00
78064;BME280;67429;51.596;-3.264;2024-03-02T05:08:16;96566.00;;;0.47;100.00
78064;BME280;67429;51.596;-3.264;2024-03-02T05:10:43;96568.10;;;0.40;100.00
78064;BME280;67429;51.596;-3.264;2024-03-02T05:13:09;96568.91;;;0.17;100.00
78064;BME280;67429;51.596;-3.264;2024-03-02T05:15:33;96573.48;;;1.36;100.00
78064;BME280;67429;51.596;-3.264;2024-03-02T05:18:00;96578.54;;;1.70;100.00
78064;BME280;67429;51.596;-3.264;2024-03-02T05:20:25;96575.11;;;2.65;100.00
78064;BME280;67429;51.596;-3.264;2024-03-02T05:22:51;96578.60;;;1.98;100.00
78064;BME280;67429;51.596;-3.264;2024-03-02T05:25:19;96577.02;;;0.89;100.00
78064;BME280;67429;51.596;-3.264;2024-03-02T05:27:43;96577.19;;;1.28;100.00
78064;BME280;67429;51.596;-3.264;2024-03-02T05:30:09;96579.52;;;1.56;100.00
78064;BME280;67429;51.596;-3.264;2024-03-02T05:32:35;96579.44;;;1.98;100.00
78064;BME280;67429;51.596;-3.264;2024-03-02T05:35:00;96582.82;;;2.97;100.00
78064;BME280;67429;51.596;-3.264;2024-03-02T05:37:27;96578.42;;;1.91;100.00
78064;BME280;67429;51.596;-3.264;2024-03-02T05:39:52;96579.13;;;2.62;100.00
78064;BME280;67429;51.596;-3.264;2024-03-02T05:42:17;96577.76;;;2.48;100.00
78064;BME280;67429;51.596;-3.264;2024-03-02T05:44:44;96581.71;;;1.68;100.00
78064;BME280;67429;51.596;-3.264;2024-03-02T05:47:09;96581.98;;;1.89;100.00
78064;BME280;67429;51.596;-3.264;2024-03-02T05:49:35;96585.30;;;2.52;100.00
78064;BME280;67429;51.596;-3.264;2024-03-02T05:52:02;96586.00;;;1.67;100.00
78064;BME280;67429;51.596;-3.264;2024-03-02T05:54:28;96586.50;;;1.47;100.00
78064;BME280;67429;51.596;-3.264;2024-03-02T05:56:54;96591.70;;;1.09;100.00
78064;BME280;67429;51.596;-3.264;2024-03-02T05:59:19;96592.66;;;1.23;100.00
78064;BME280;67429;51.596;-3.264;2024-03-02T06:01:46;96594.84;;;1.35;100.00
78064;BME280;67429;51.596;-3.264;2024-03-02T06:04:10;96600.00;;;1.79;100.00
78064;BME280;67429;51.596;-3.264;2024-03-02T06:06:37;96600.31;;;2.34;100.00
78064;BME280;67429;51.596;-3.264;2024-03-02T06:09:02;96593.89;;;1.08;100.00
78064;BME280;67429;51.596;-3.264;2024-03-02T06:11:28;96592.55;;;1.44;100.00
78064;BME280;67429;51.596;-3.264;2024-03-02T06:13:54;96594.57;;;1.18;100.00
78064;BME280;67429;51.596;-3.264;2024-03-02T06:16:19;96600.52;;;1.68;100.00
78064;BME280;67429;51.596;-3.264;2024-03-02T06:18:45;96599.03;;;1.46;100.00
78064;BME280;67429;51.596;-3.264;2024-03-02T06:21:11;96603.47;;;1.43;100.00
78064;BME280;67429;51.596;-3.264;2024-03-02T06:23:37;96603.86;;;1.03;100.00
78064;BME280;67429;51.596;-3.264;2024-03-02T06:26:02;96608.30;;;1.01;100.00
78064;BME280;67429;51.596;-3.264;2024-03-02T06:28:28;96606.07;;;1.67;100.00
78064;BME280;67429;51.596;-3.264;2024-03-02T06:30:54;96606.14;;;1.83;100.00
78064;BME280;67429;51.596;-3.264;2024-03-02T06:33:20;96605.50;;;1.23;100.00
78064;BME280;67429;51.596;-3.264;2024-03-02T06:35:45;96607.43;;;0.89;100.00
78064;BME280;67429;51.596;-3.264;2024-03-02T06:38:11;96609.42;;;0.49;100.00
78064;BME280;67429;51.596;-3.264;2024-03-02T06:40:37;96613.06;;;0.46;100.00
78064;BME280;67429;51.596;-3.264;2024-03-02T06:43:04;96613.20;;;-0.19;100.00
78064;BME280;67429;51.596;-3.264;2024-03-02T06:45:29;96616.60;;;0.57;100.00
78064;BME280;67429;51.596;-3.264;2024-03-02T06:47:55;96619.97;;;1.14;100.00
78064;BME280;67429;51.596;-3.264;2024-03-02T06:50:21;96619.30;;;1.26;100.00
78064;BME280;67429;51.596;-3.264;2024-03-02T06:52:46;96622.62;;;0.61;100.00
78064;BME280;67429;51.596;-3.264;2024-03-02T06:55:12;96623.61;;;0.19;100.00
78064;BME280;67429;51.596;-3.264;2024-03-02T06:57:38;96626.58;;;-0.56;100.00
78064;BME280;67429;51.596;-3.264;2024-03-02T07:00:05;96623.95;;;0.38;100.00
78064;BME280;67429;51.596;-3.264;2024-03-02T07:02:30;96626.30;;;1.15;100.00
78064;BME280;67429;51.596;-3.264;2024-03-02T07:04:55;96628.74;;;0.67;100.00
78064;BME280;67429;51.596;-3.264;2024-03-02T07:07:22;96628.88;;;0.96;100.00
78064;BME280;67429;51.596;-3.264;2024-03-02T07:09:47;96630.73;;;0.57;100.00
78064;BME280;67429;51.596;-3.264;2024-03-02T07:12:14;96630.67;;;0.49;100.00
78064;BME280;67429;51.596;-3.264;2024-03-02T07:14:39;96634.05;;;0.17;100.00
78064;BME280;67429;51.596;-3.264;2024-03-02T07:17:04;96636.01;;;0.96;100.00
78064;BME280;67429;51.596;-3.264;2024-03-02T07:19:30;96631.60;;;0.24;100.00
78064;BME280;67429;51.596;-3.264;2024-03-02T07:21:57;96633.14;;;1.47;100.00
78064;BME280;67429;51.596;-3.264;2024-03-02T07:24:22;96636.07;;;1.61;100.00
78064;BME280;67429;51.596;-3.264;2024-03-02T07:26:48;96637.65;;;1.55;100.00
78064;BME280;67429;51.596;-3.264;2024-03-02T07:29:14;96638.25;;;1.33;100.00
78064;BME280;67429;51.596;-3.264;2024-03-02T07:31:40;96637.14;;;0.79;100.00
78064;BME280;67429;51.596;-3.264;2024-03-02T07:34:05;96636.28;;;0.63;100.00
78064;BME280;67429;51.596;-3.264;2024-03-02T07:36:31;96636.58;;;1.87;100.00
78064;BME280;67429;51.596;-3.264;2024-03-02T07:38:58;96636.34;;;1.71;100.00
78064;BME280;67429;51.596;-3.264;2024-03-02T07:41:23;96640.80;;;1.91;100.00
78064;BME280;67429;51.596;-3.264;2024-03-02T07:43:50;96643.44;;;1.85;100.00
78064;BME280;67429;51.596;-3.264;2024-03-02T07:46:15;96641.20;;;1.70;100.00
78064;BME280;67429;51.596;-3.264;2024-03-02T07:48:42;96644.14;;;1.66;100.00
78064;BME280;67429;51.596;-3.264;2024-03-02T07:51:06;96647.49;;;1.97;100.00
78064;BME280;67429;51.596;-3.264;2024-03-02T07:53:33;96650.06;;;1.74;100.00
78064;BME280;67429;51.596;-3.264;2024-03-02T07:56:03;96651.04;;;1.83;100.00
78064;BME280;67429;51.596;-3.264;2024-03-02T07:58:24;96657.26;;;1.24;100.00
78064;BME280;67429;51.596;-3.264;2024-03-02T08:00:49;96652.58;;;0.70;100.00
78064;BME280;67429;51.596;-3.264;2024-03-02T08:03:15;96651.09;;;1.37;100.00
78064;BME280;67429;51.596;-3.264;2024-03-02T08:05:41;96650.71;;;1.36;100.00
78064;BME280;67429;51.596;-3.264;2024-03-02T08:08:07;96652.42;;;0.97;100.00
78064;BME280;67429;51.596;-3.264;2024-03-02T08:10:32;96658.21;;;1.29;100.00
78064;BME280;67429;51.596;-3.264;2024-03-02T08:12:59;96658.90;;;2.17;100.00
78064;BME280;67429;51.596;-3.264;2024-03-02T08:15:24;96662.34;;;2.71;100.00
78064;BME280;67429;51.596;-3.264;2024-03-02T08:17:50;96657.38;;;1.44;100.00
78064;BME280;67429;51.596;-3.264;2024-03-02T08:20:15;96663.70;;;1.80;100.00
78064;BME280;67429;51.596;-3.264;2024-03-02T08:22:41;96670.40;;;1.39;100.00
78064;BME280;67429;51.596;-3.264;2024-03-02T08:25:08;96671.45;;;1.60;100.00
78064;BME280;67429;51.596;-3.264;2024-03-02T08:27:34;96680.49;;;2.34;100.00
78064;BME280;67429;51.596;-3.264;2024-03-02T08:29:59;96681.43;;;1.84;100.00
78064;BME280;67429;51.596;-3.264;2024-03-02T08:32:24;96684.62;;;1.44;100.00
78064;BME280;67429;51.596;-3.264;2024-03-02T08:34:50;96693.08;;;2.15;100.00
78064;BME280;67429;51.596;-3.264;2024-03-02T08:37:17;96692.35;;;1.87;100.00
78064;BME280;67429;51.596;-3.264;2024-03-02T08:39:43;96698.10;;;1.21;100.00
78064;BME280;67429;51.596;-3.264;2024-03-02T08:42:07;96697.71;;;2.26;100.00
78064;BME280;67429;51.596;-3.264;2024-03-02T08:44:33;96699.82;;;1.13;100.00
78064;BME280;67429;51.596;-3.264;2024-03-02T08:46:59;96702.98;;;1.39;100.00
78064;BME280;67429;51.596;-3.264;2024-03-02T08:49:24;96704.40;;;1.81;100.00
78064;BME280;67429;51.596;-3.264;2024-03-02T08:51:49;96706.32;;;1.79;100.00
78064;BME280;67429;51.596;-3.264;2024-03-02T08:54:15;96709.91;;;1.92;100.00
78064;BME280;67429;51.596;-3.264;2024-03-02T08:56:41;96709.93;;;1.73;100.00
78064;BME280;67429;51.596;-3.264;2024-03-02T08:59:08;96713.60;;;1.99;100.00
78064;BME280;67429;51.596;-3.264;2024-03-02T09:01:34;96716.96;;;1.73;100.00
78064;BME280;67429;51.596;-3.264;2024-03-02T09:03:58;96718.50;;;1.04;100.00
78064;BME280;67429;51.596;-3.264;2024-03-02T09:06:24;96719.89;;;0.51;100.00
78064;BME280;67429;51.596;-3.264;2024-03-02T09:08:50;96721.89;;;1.35;100.00
78064;BME280;67429;51.596;-3.264;2024-03-02T09:11:15;96722.22;;;1.53;100.00
78064;BME280;67429;51.596;-3.264;2024-03-02T09:13:42;96723.00;;;1.84;100.00
78064;BME280;67429;51.596;-3.264;2024-03-02T09:16:07;96723.59;;;1.88;100.00
78064;BME280;67429;51.596;-3.264;2024-03-02T09:18:32;96732.06;;;2.48;100.00
78064;BME280;67429;51.596;-3.264;2024-03-02T09:20:57;96732.28;;;2.63;100.00
78064;BME280;67429;51.596;-3.264;2024-03-02T09:23:24;96729.46;;;1.97;100.00
78064;BME280;67429;51.596;-3.264;2024-03-02T09:25:49;96731.59;;;1.23;100.00
78064;BME280;67429;51.596;-3.264;2024-03-02T09:28:15;96733.21;;;1.67;100.00
78064;BME280;67429;51.596;-3.264;2024-03-02T09:30:41;96734.12;;;1.80;100.00
78064;BME280;67429;51.596;-3.264;2024-03-02T09:33:06;96739.86;;;2.52;100.00
78064;BME280;67429;51.596;-3.264;2024-03-02T09:35:32;96739.44;;;3.41;100.00
78064;BME280;67429;51.596;-3.264;2024-03-02T09:37:57;96737.49;;;2.00;100.00
78064;BME280;67429;51.596;-3.264;2024-03-02T09:40:23;96740.72;;;2.83;100.00
78064;BME280;67429;51.596;-3.264;2024-03-02T09:42:49;96745.74;;;2.87;100.00
78064;BME280;67429;51.596;-3.264;2024-03-02T09:45:15;96739.67;;;1.79;100.00
78064;BME280;67429;51.596;-3.264;2024-03-02T09:47:40;96745.39;;;1.65;100.00
78064;BME280;67429;51.596;-3.264;2024-03-02T09:50:07;96744.40;;;1.27;100.00
78064;BME280;67429;51.596;-3.264;2024-03-02T09:52:32;96743.47;;;0.50;100.00
78064;BME280;67429;51.596;-3.264;2024-03-02T09:54:58;96744.34;;;1.18;100.00
78064;BME280;67429;51.596;-3.264;2024-03-02T09:57:23;96741.37;;;1.43;100.00
78064;BME280;67429;51.596;-3.264;2024-03-02T09:59:50;96742.20;;;1.53;100.00
78064;BME280;67429;51.596;-3.264;2024-03-02T10:02:15;96745.25;;;2.32;100.00
78064;BME280;67429;51.596;-3.264;2024-03-02T10:04:40;96740.99;;;1.61;100.00
78064;BME280;67429;51.596;-3.264;2024-03-02T10:07:11;96746.31;;;1.53;100.00
78064;BME280;67429;51.596;-3.264;2024-03-02T10:09:33;96748.82;;;1.65;100.00
78064;BME280;67429;51.596;-3.264;2024-03-02T10:12:04;96752.81;;;1.03;100.00
78064;BME280;67429;51.596;-3.264;2024-03-02T10:14:24;96753.08;;;1.53;100.00
78064;BME280;67429;51.596;-3.264;2024-03-02T10:17:02;96755.23;;;1.63;100.00
78064;BME280;67429;51.596;-3.264;2024-03-02T10:19:17;96756.10;;;1.10;100.00
78064;BME280;67429;51.596;-3.264;2024-03-02T10:21:40;96759.38;;;1.25;100.00
78064;BME280;67429;51.596;-3.264;2024-03-02T10:24:07;96759.79;;;1.21;100.00
78064;BME280;67429;51.596;-3.264;2024-03-02T10:26:32;96765.97;;;1.16;100.00
78064;BME280;67429;51.596;-3.264;2024-03-02T10:28:57;96768.31;;;1.81;100.00
78064;BME280;67429;51.596;-3.264;2024-03-02T10:31:24;96771.03;;;1.16;100.00
78064;BME280;67429;51.596;-3.264;2024-03-02T10:33:48;96773.69;;;1.42;100.00
78064;BME280;67429;51.596;-3.264;2024-03-02T10:36:15;96774.62;;;1.29;100.00
78064;BME280;67429;51.596;-3.264;2024-03-02T10:38:41;96774.38;;;1.99;100.00
78064;BME280;67429;51.596;-3.264;2024-03-02T10:41:05;96775.25;;;2.27;100.00
78064;BME280;67429;51.596;-3.264;2024-03-02T10:43:31;96775.63;;;1.30;100.00
78064;BME280;67429;51.596;-3.264;2024-03-02T10:45:57;96777.02;;;1.27;100.00
78064;BME280;67429;51.596;-3.264;2024-03-02T10:48:22;96781.26;;;1.37;100.00
78064;BME280;67429;51.596;-3.264;2024-03-02T10:50:47;96788.55;;;1.23;100.00
78064;BME280;67429;51.596;-3.264;2024-03-02T10:53:14;96790.43;;;1.50;100.00
78064;BME280;67429;51.596;-3.264;2024-03-02T10:55:39;96795.01;;;1.29;100.00
78064;BME280;67429;51.596;-3.264;2024-03-02T10:58:06;96795.55;;;0.69;100.00
78064;BME280;67429;51.596;-3.264;2024-03-02T11:00:35;96796.65;;;1.11;100.00
78064;BME280;67429;51.596;-3.264;2024-03-02T11:02:58;96794.85;;;1.56;100.00
78064;BME280;67429;51.596;-3.264;2024-03-02T11:05:28;96803.30;;;2.10;100.00
78064;BME280;67429;51.596;-3.264;2024-03-02T11:07:48;96804.91;;;2.90;100.00
78064;BME280;67429;51.596;-3.264;2024-03-02T11:10:19;96798.64;;;2.56;100.00
78064;BME280;67429;51.596;-3.264;2024-03-02T11:12:48;96807.22;;;3.36;100.00
78064;BME280;67429;51.596;-3.264;2024-03-02T11:15:11;96808.26;;;3.16;100.00
78064;BME280;67429;51.596;-3.264;2024-03-02T11:17:31;96804.95;;;2.05;100.00
78064;BME280;67429;51.596;-3.264;2024-03-02T11:19:57;96809.28;;;2.61;100.00
78064;BME280;67429;51.596;-3.264;2024-03-02T11:22:28;96812.81;;;2.40;100.00
78064;BME280;67429;51.596;-3.264;2024-03-02T11:24:49;96818.00;;;2.72;100.00
78064;BME280;67429;51.596;-3.264;2024-03-02T11:27:14;96816.29;;;1.97;100.00
78064;BME280;67429;51.596;-3.264;2024-03-02T11:29:44;96821.97;;;1.66;100.00
78064;BME280;67429;51.596;-3.264;2024-03-02T11:32:06;96825.99;;;1.15;100.00
78064;BME280;67429;51.596;-3.264;2024-03-02T11:34:33;96824.29;;;1.89;100.00
78064;BME280;67429;51.596;-3.264;2024-03-02T11:36:58;96831.60;;;2.50;100.00
78064;BME280;67429;51.596;-3.264;2024-03-02T11:39:22;96827.02;;;1.40;100.00
78064;BME280;67429;51.596;-3.264;2024-03-02T11:41:48;96826.92;;;1.55;100.00
78064;BME280;67429;51.596;-3.264;2024-03-02T11:44:15;96824.77;;;1.68;100.00
78064;BME280;67429;51.596;-3.264;2024-03-02T11:46:39;96829.13;;;2.30;100.00
78064;BME280;67429;51.596;-3.264;2024-03-02T11:49:05;96831.73;;;2.30;100.00
78064;BME280;67429;51.596;-3.264;2024-03-02T11:51:33;96831.12;;;2.74;100.00
78064;BME280;67429;51.596;-3.264;2024-03-02T11:53:58;96834.10;;;2.73;100.00
78064;BME280;67429;51.596;-3.264;2024-03-02T11:56:22;96836.07;;;1.20;100.00
78064;BME280;67429;51.596;-3.264;2024-03-02T11:58:49;96842.80;;;1.20;100.00
78064;BME280;67429;51.596;-3.264;2024-03-02T12:01:16;96846.24;;;1.89;100.00
78064;BME280;67429;51.596;-3.264;2024-03-02T12:03:40;96845.02;;;1.46;100.00
78064;BME280;67429;51.596;-3.264;2024-03-02T12:06:07;96848.84;;;1.54;100.00
78064;BME280;67429;51.596;-3.264;2024-03-02T12:08:31;96849.68;;;1.28;100.00
78064;BME280;67429;51.596;-3.264;2024-03-02T12:10:59;96851.35;;;1.11;100.00
78064;BME280;67429;51.596;-3.264;2024-03-02T12:13:23;96854.38;;;2.30;100.00
78064;BME280;67429;51.596;-3.264;2024-03-02T12:15:54;96856.38;;;1.24;100.00
78064;BME280;67429;51.596;-3.264;2024-03-02T12:18:16;96862.04;;;1.43;100.00
78064;BME280;67429;51.596;-3.264;2024-03-02T12:20:40;96860.07;;;0.86;100.00
78064;BME280;67429;51.596;-3.264;2024-03-02T12:23:06;96863.12;;;1.73;100.00
78064;BME280;67429;51.596;-3.264;2024-03-02T12:25:32;96863.56;;;1.57;100.00
78064;BME280;67429;51.596;-3.264;2024-03-02T12:28:00;96861.89;;;2.12;100.00
78064;BME280;67429;51.596;-3.264;2024-03-02T12:30:24;96862.33;;;1.47;100.00
78064;BME280;67429;51.596;-3.264;2024-03-02T12:32:49;96862.23;;;1.18;100.00
78064;BME280;67429;51.596;-3.264;2024-03-02T12:35:15;96865.84;;;1.54;100.00
78064;BME280;67429;51.596;-3.264;2024-03-02T12:37:45;96865.05;;;1.83;100.00
78064;BME280;67429;51.596;-3.264;2024-03-02T12:40:09;96863.26;;;2.40;100.00
78064;BME280;67429;51.596;-3.264;2024-03-02T12:42:32;96867.09;;;2.51;100.00